createdAt,value
2023-04-26T00:01:14.783Z,3.70
2023-04-26T00:03:44.033Z,3.67
2023-04-26T00:06:14.746Z,3.10
2023-04-26T00:08:45.116Z,3.73
2023-04-26T00:11:14.171Z,3.80
2023-04-26T00:13:42.995Z,3.07
2023-04-26T00:16:12.185Z,4.37
2023-04-26T00:18:40.932Z,3.23
2023-04-26T00:21:09.762Z,3.33
2023-04-26T00:23:38.643Z,4.13
2023-04-26T00:26:09.599Z,4.63
2023-04-26T00:28:38.402Z,3.60
2023-04-26T00:31:07.388Z,3.70
2023-04-26T00:33:36.633Z,3.30
2023-04-26T00:36:05.585Z,3.10
2023-04-26T00:38:35.052Z,2.87
2023-04-26T00:41:03.941Z,3.53
2023-04-26T00:43:34.690Z,2.90
2023-04-26T00:46:03.995Z,3.30
2023-04-26T00:48:33.058Z,3.03
2023-04-26T00:51:02.589Z,3.30
2023-04-26T00:53:32.158Z,2.70
2023-04-26T00:56:01.456Z,3.00
2023-04-26T00:58:31.643Z,2.63
2023-04-26T01:01:02.853Z,2.60
2023-04-26T01:03:32.333Z,3.20
2023-04-26T01:06:03.007Z,2.40
2023-04-26T01:08:31.830Z,2.20
2023-04-26T01:11:00.962Z,2.63
2023-04-26T01:13:31.017Z,2.63
2023-04-26T01:16:02.899Z,3.87
2023-04-26T01:18:31.984Z,2.70
2023-04-26T01:21:03.256Z,2.70
2023-04-26T01:23:34.081Z,2.80
2023-04-26T01:26:03.310Z,3.23
2023-04-26T01:28:32.422Z,2.60
2023-04-26T01:31:01.579Z,3.03
2023-04-26T01:33:32.532Z,2.30
2023-04-26T01:36:01.625Z,2.10
2023-04-26T01:38:33.747Z,2.50
2023-04-26T01:41:02.524Z,2.57
2023-04-26T01:43:34.319Z,3.27
2023-04-26T01:46:03.874Z,2.23
2023-04-26T01:48:32.479Z,2.50
2023-04-26T01:51:03.264Z,3.10
2023-04-26T01:53:33.963Z,2.70
2023-04-26T01:56:03.429Z,2.40
2023-04-26T01:58:33.079Z,2.87
2023-04-26T02:01:07.832Z,2.10
2023-04-26T02:03:37.388Z,2.33
2023-04-26T02:06:06.598Z,2.47
2023-04-26T02:08:37.667Z,2.03
2023-04-26T02:11:06.717Z,2.40
2023-04-26T02:13:35.483Z,2.53
2023-04-26T02:16:04.465Z,2.23
2023-04-26T02:18:33.332Z,1.70
2023-04-26T02:21:02.152Z,2.13
2023-04-26T02:23:33.339Z,2.00
2023-04-26T02:26:04.518Z,1.77
2023-04-26T02:28:33.467Z,1.80
2023-04-26T02:31:03.925Z,1.57
2023-04-26T02:33:33.347Z,1.80
2023-04-26T02:36:05.548Z,2.17
2023-04-26T02:38:36.386Z,2.43
2023-04-26T02:41:08.936Z,2.00
2023-04-26T02:43:37.902Z,2.10
2023-04-26T02:46:09.005Z,2.17
2023-04-26T02:48:37.893Z,2.00
2023-04-26T02:51:08.006Z,2.00
2023-04-26T02:53:37.165Z,1.93
2023-04-26T02:56:07.613Z,2.37
2023-04-26T02:58:36.485Z,1.87
2023-04-26T03:01:05.764Z,2.00
2023-04-26T03:03:34.847Z,2.00
2023-04-26T03:06:04.249Z,1.80
2023-04-26T03:08:35.101Z,1.90
2023-04-26T03:11:04.325Z,1.77
2023-04-26T03:13:34.868Z,2.20
2023-04-26T03:16:04.181Z,2.00
2023-04-26T03:18:33.351Z,2.47
2023-04-26T03:21:02.521Z,2.43
2023-04-26T03:23:32.405Z,2.43
2023-04-26T03:26:01.379Z,2.10
2023-04-26T03:28:30.408Z,2.73
2023-04-26T03:31:00.921Z,2.40
2023-04-26T03:33:32.131Z,2.33
2023-04-26T03:36:01.141Z,2.27
2023-04-26T03:38:30.326Z,2.30
2023-04-26T03:40:59.597Z,2.10
2023-04-26T03:43:28.559Z,2.23
2023-04-26T03:45:57.414Z,2.00
2023-04-26T03:48:28.127Z,2.20
2023-04-26T03:50:57.062Z,2.33
2023-04-26T03:53:25.870Z,2.10
2023-04-26T03:55:54.918Z,1.73
2023-04-26T03:58:23.626Z,2.07
2023-04-26T04:00:52.619Z,2.80
2023-04-26T04:03:21.977Z,2.30
2023-04-26T04:05:52.600Z,2.10
2023-04-26T04:08:21.415Z,1.97
2023-04-26T04:10:50.459Z,2.00
2023-04-26T04:13:22.347Z,2.47
2023-04-26T04:15:51.978Z,1.97
2023-04-26T04:18:24.104Z,3.10
2023-04-26T04:20:54.795Z,1.90
2023-04-26T04:23:24.013Z,2.03
2023-04-26T04:25:52.654Z,2.07
2023-04-26T04:28:22.706Z,2.17
2023-04-26T04:30:51.757Z,1.93
2023-04-26T04:33:20.531Z,1.70
2023-04-26T04:35:49.247Z,1.80
2023-04-26T04:38:19.438Z,2.20
2023-04-26T04:40:50.875Z,1.90
2023-04-26T04:43:20.157Z,2.33
2023-04-26T04:45:49.415Z,1.90
2023-04-26T04:48:18.667Z,1.70
2023-04-26T04:50:48.172Z,2.33
2023-04-26T04:53:18.670Z,2.40
2023-04-26T04:55:49.272Z,2.07
2023-04-26T04:58:19.102Z,2.17
2023-04-26T05:00:47.793Z,1.90
2023-04-26T05:03:22.047Z,1.80
2023-04-26T05:05:50.902Z,2.03
2023-04-26T05:08:20.993Z,1.97
2023-04-26T05:10:50.680Z,1.90
2023-04-26T05:13:19.439Z,1.57
2023-04-26T05:15:48.075Z,1.80
2023-04-26T05:18:16.790Z,1.57
2023-04-26T05:20:45.536Z,2.30
2023-04-26T05:23:14.567Z,1.70
2023-04-26T05:25:45.513Z,2.77
2023-04-26T05:28:43.259Z,1.70
2023-04-26T05:31:32.234Z,1.90
2023-04-26T05:34:21.113Z,1.80
2023-04-26T05:36:53.626Z,1.80
2023-04-26T05:39:22.335Z,1.73
2023-04-26T05:41:52.359Z,1.63
2023-04-26T05:44:21.193Z,2.00
2023-04-26T05:46:50.174Z,1.80
2023-04-26T05:49:18.856Z,1.80
2023-04-26T05:51:47.758Z,2.10
2023-04-26T05:54:16.537Z,1.73
2023-04-26T05:56:45.697Z,1.73
2023-04-26T05:59:15.805Z,2.10
2023-04-26T06:01:44.544Z,2.73
2023-04-26T06:04:13.662Z,4.00
2023-04-26T06:07:02.476Z,6.17
2023-04-26T06:09:33.156Z,2.20
2023-04-26T06:12:02.288Z,2.43
2023-04-26T06:14:33.698Z,1.57
2023-04-26T06:17:07.248Z,1.53
2023-04-26T06:19:36.194Z,1.90
2023-04-26T06:22:04.860Z,1.57
2023-04-26T06:24:33.597Z,1.97
2023-04-26T06:27:02.370Z,1.73
2023-04-26T06:29:34.425Z,1.90
2023-04-26T06:32:03.484Z,2.70
2023-04-26T06:34:32.283Z,2.70
2023-04-26T06:37:00.964Z,2.30
2023-04-26T06:39:30.564Z,1.87
2023-04-26T06:41:59.487Z,1.47
2023-04-26T06:44:40.746Z,1.90
2023-04-26T06:47:10.434Z,1.83
2023-04-26T06:49:39.319Z,1.80
2023-04-26T06:52:09.417Z,1.60
2023-04-26T06:54:46.335Z,1.60
2023-04-26T06:57:22.773Z,1.87
2023-04-26T06:59:52.783Z,1.80
2023-04-26T07:02:23.515Z,1.57
2023-04-26T07:04:52.845Z,1.57
2023-04-26T07:07:21.997Z,2.30
2023-04-26T07:09:50.669Z,2.00
2023-04-26T07:12:19.249Z,1.37
2023-04-26T07:14:47.929Z,1.80
2023-04-26T07:17:17.977Z,1.50
2023-04-26T07:19:46.758Z,2.00
2023-04-26T07:22:15.430Z,1.43
2023-04-26T07:24:44.324Z,1.47
2023-04-26T07:27:13.001Z,1.57
2023-04-26T07:29:41.765Z,2.10
2023-04-26T07:32:10.490Z,1.57
2023-04-26T07:34:41.107Z,2.00
2023-04-26T07:37:09.830Z,1.67
2023-04-26T07:39:38.430Z,1.80
2023-04-26T07:42:07.386Z,2.13
2023-04-26T07:44:36.031Z,1.57
2023-04-26T07:47:04.805Z,1.50
2023-04-26T07:49:33.511Z,1.37
2023-04-26T07:52:03.526Z,1.93
2023-04-26T07:54:32.196Z,1.50
2023-04-26T07:57:00.853Z,1.60
2023-04-26T07:59:29.512Z,1.70
2023-04-26T08:01:58.431Z,1.43
2023-04-26T08:04:36.679Z,1.73
2023-04-26T08:07:07.178Z,1.47
2023-04-26T08:09:36.003Z,1.37
2023-04-26T08:12:06.505Z,1.10
2023-04-26T08:14:36.900Z,1.30
2023-04-26T08:17:06.897Z,1.43
2023-04-26T08:19:36.276Z,1.60
2023-04-26T08:22:07.289Z,1.67
2023-04-26T08:24:35.988Z,1.40
2023-04-26T08:27:04.553Z,2.03
2023-04-26T08:29:33.241Z,1.60
2023-04-26T08:32:01.890Z,2.30
2023-04-26T08:34:30.531Z,1.60
2023-04-26T08:36:59.220Z,1.90
2023-04-26T08:39:29.508Z,1.47
2023-04-26T08:42:05.618Z,1.20
2023-04-26T08:44:36.565Z,1.23
2023-04-26T08:47:11.220Z,1.10
2023-04-26T08:49:42.483Z,1.43
2023-04-26T08:52:12.298Z,1.57
2023-04-26T08:54:42.961Z,1.50
2023-04-26T08:57:11.630Z,1.97
2023-04-26T08:59:41.244Z,1.50
2023-04-26T09:02:11.969Z,1.70
2023-04-26T09:04:42.024Z,1.27
2023-04-26T09:07:14.262Z,1.50
2023-04-26T09:09:48.748Z,1.33
2023-04-26T09:12:21.267Z,1.67
2023-04-26T09:14:50.426Z,1.30
2023-04-26T09:17:30.800Z,1.97
2023-04-26T09:20:00.188Z,1.23
2023-04-26T09:22:30.332Z,1.23
2023-04-26T09:25:01.647Z,1.20
2023-04-26T09:27:37.963Z,1.57
2023-04-26T09:30:09.473Z,1.50
2023-04-26T09:32:49.776Z,1.43
2023-04-26T09:35:30.285Z,1.13
2023-04-26T09:38:06.445Z,1.40
2023-04-26T09:40:42.248Z,1.37
2023-04-26T09:43:12.647Z,2.47
2023-04-26T09:45:50.342Z,1.83
2023-04-26T09:48:22.577Z,1.00
2023-04-26T09:50:54.650Z,1.27
2023-04-26T09:53:28.544Z,1.53
2023-04-26T09:56:08.648Z,1.40
2023-04-26T09:58:39.400Z,1.10
2023-04-26T10:01:10.029Z,0.90
2023-04-26T10:03:39.468Z,1.40
2023-04-26T10:06:08.850Z,1.03
2023-04-26T10:08:37.750Z,1.73
2023-04-26T10:11:10.477Z,1.27
2023-04-26T10:13:39.486Z,1.80
2023-04-26T10:16:09.882Z,1.10
2023-04-26T10:18:39.455Z,1.30
2023-04-26T10:21:11.990Z,1.13
2023-04-26T10:23:41.992Z,1.40
2023-04-26T10:26:48.245Z,1.37
2023-04-26T10:29:17.102Z,1.63
2023-04-26T10:32:12.070Z,1.20
2023-04-26T10:34:41.672Z,1.17
2023-04-26T10:37:12.705Z,1.30
2023-04-26T10:39:42.537Z,1.07
2023-04-26T10:42:27.607Z,1.37
2023-04-26T10:44:57.191Z,1.37
2023-04-26T10:47:32.669Z,1.97
2023-04-26T10:50:07.329Z,1.60
2023-04-26T10:52:36.993Z,1.43
2023-04-26T10:55:06.882Z,1.07
2023-04-26T10:57:50.613Z,1.20
2023-04-26T11:00:22.045Z,1.53
2023-04-26T11:03:12.949Z,1.10
2023-04-26T11:05:54.707Z,1.73
2023-04-26T11:08:27.820Z,1.60
2023-04-26T11:11:11.703Z,2.47
2023-04-26T11:13:43.008Z,1.27
2023-04-26T11:16:13.263Z,1.30
2023-04-26T11:18:44.018Z,1.40
2023-04-26T11:21:17.538Z,1.30
2023-04-26T11:23:54.599Z,1.67
2023-04-26T11:26:24.706Z,2.03
2023-04-26T11:28:55.090Z,1.50
2023-04-26T11:31:24.974Z,1.80
2023-04-26T11:33:53.556Z,1.50
2023-04-26T11:36:24.535Z,1.73
2023-04-26T11:38:54.260Z,1.70
2023-04-26T11:41:24.491Z,1.60
2023-04-26T11:43:54.452Z,1.30
2023-04-26T11:46:24.244Z,1.63
2023-04-26T11:48:53.478Z,2.37
2023-04-26T11:51:25.619Z,1.50
2023-04-26T11:53:54.400Z,1.37
2023-04-26T11:56:23.131Z,1.43
2023-04-26T11:58:53.626Z,2.03
2023-04-26T12:01:24.957Z,1.90
2023-04-26T12:03:54.851Z,1.73
2023-04-26T12:06:32.838Z,1.70
2023-04-26T12:09:05.537Z,1.40
2023-04-26T12:11:34.409Z,1.37
2023-04-26T12:14:03.515Z,1.70
2023-04-26T12:16:33.622Z,1.37
2023-04-26T12:19:06.687Z,1.77
2023-04-26T12:21:42.497Z,1.53
2023-04-26T12:24:23.402Z,1.40
2023-04-26T12:26:52.228Z,1.33
2023-04-26T12:29:20.867Z,1.33
2023-04-26T12:31:50.966Z,1.30
2023-04-26T12:34:19.668Z,1.67
2023-04-26T12:36:48.357Z,1.50
2023-04-26T12:39:17.205Z,1.23
2023-04-26T12:41:46.524Z,1.50
2023-04-26T12:44:15.709Z,0.80
2023-04-26T12:46:44.480Z,1.30
2023-04-26T12:49:14.642Z,1.27
2023-04-26T12:51:43.357Z,1.17
2023-04-26T12:54:12.170Z,1.20
2023-04-26T12:56:44.030Z,1.40
2023-04-26T12:59:12.847Z,1.60
2023-04-26T13:01:42.041Z,1.30
2023-04-26T13:04:11.436Z,1.13
2023-04-26T13:06:41.873Z,1.70
2023-04-26T13:09:12.854Z,0.90
2023-04-26T13:11:41.786Z,0.80
2023-04-26T13:14:10.595Z,1.00
2023-04-26T13:16:42.384Z,1.20
2023-04-26T13:19:11.518Z,1.10
2023-04-26T13:21:42.014Z,1.73
2023-04-26T13:24:10.660Z,1.33
2023-04-26T13:26:39.320Z,1.47
2023-04-26T13:29:08.703Z,1.40
2023-04-26T13:31:37.848Z,1.20
2023-04-26T13:34:07.036Z,1.40
2023-04-26T13:36:35.702Z,1.63
2023-04-26T13:39:07.315Z,2.40
2023-04-26T13:41:36.216Z,1.53
2023-04-26T13:44:05.638Z,1.20
2023-04-26T13:46:34.380Z,1.30
2023-04-26T13:49:03.016Z,1.30
2023-04-26T13:51:34.142Z,1.10
2023-04-26T13:54:02.681Z,1.70
2023-04-26T13:56:33.008Z,0.90
2023-04-26T13:59:03.588Z,1.13
2023-04-26T14:01:32.833Z,1.90
2023-04-26T14:04:01.651Z,1.40
2023-04-26T14:06:30.378Z,2.57
2023-04-26T14:08:59.343Z,1.33
2023-04-26T14:11:28.383Z,1.70
2023-04-26T14:13:58.448Z,1.37
2023-04-26T14:16:27.663Z,1.77
2023-04-26T14:18:56.569Z,1.60
2023-04-26T14:21:26.818Z,1.53
2023-04-26T14:23:56.461Z,1.00
2023-04-26T14:26:27.154Z,1.90
2023-04-26T14:28:55.938Z,1.63
2023-04-26T14:31:26.434Z,1.20
2023-04-26T14:33:56.493Z,1.20
2023-04-26T14:36:26.001Z,1.30
2023-04-26T14:38:54.858Z,1.27
2023-04-26T14:41:23.530Z,1.30
2023-04-26T14:43:52.354Z,1.23
2023-04-26T14:46:20.915Z,1.37
2023-04-26T14:48:51.034Z,1.57
2023-04-26T14:51:19.784Z,1.43
2023-04-26T14:53:48.589Z,1.40
2023-04-26T14:56:17.245Z,1.73
2023-04-26T14:58:46.291Z,1.07
2023-04-26T15:01:14.933Z,1.30
2023-04-26T15:03:43.802Z,1.30
2023-04-26T15:06:13.942Z,1.40
2023-04-26T15:08:42.624Z,0.90
2023-04-26T15:11:11.334Z,2.27
2023-04-26T15:13:40.049Z,1.20
2023-04-26T15:16:09.449Z,4.53
2023-04-26T15:18:38.498Z,1.10
2023-04-26T15:21:07.161Z,2.57
2023-04-26T15:23:37.189Z,2.77
2023-04-26T15:26:05.850Z,1.50
2023-04-26T15:28:34.603Z,1.20
2023-04-26T15:31:03.832Z,1.40
2023-04-26T15:33:33.287Z,1.30
2023-04-26T15:36:02.070Z,1.60
2023-04-26T15:38:30.826Z,1.27
2023-04-26T15:41:00.841Z,1.23
2023-04-26T15:43:29.682Z,1.60
2023-04-26T15:45:58.434Z,1.33
2023-04-26T15:48:27.165Z,1.37
2023-04-26T15:50:56.878Z,1.40
2023-04-26T15:53:26.097Z,1.57
2023-04-26T15:55:54.637Z,1.80
2023-04-26T15:58:24.827Z,1.70
2023-04-26T16:00:53.529Z,1.60
2023-04-26T16:03:22.476Z,1.20
2023-04-26T16:05:51.326Z,1.40
2023-04-26T16:08:36.794Z,1.70
2023-04-26T16:11:08.370Z,1.57
2023-04-26T16:13:38.424Z,1.47
2023-04-26T16:16:10.751Z,1.53
2023-04-26T16:18:40.366Z,1.40
2023-04-26T16:21:09.850Z,1.47
2023-04-26T16:23:39.420Z,1.40
2023-04-26T16:26:08.187Z,1.40
2023-04-26T16:28:38.367Z,1.40
2023-04-26T16:31:07.361Z,1.30
2023-04-26T16:33:36.037Z,1.20
2023-04-26T16:36:05.078Z,1.33
2023-04-26T16:38:33.770Z,1.30
2023-04-26T16:41:02.537Z,1.20
2023-04-26T16:43:32.769Z,2.30
2023-04-26T16:46:04.416Z,1.27
2023-04-26T16:48:34.383Z,1.60
2023-04-26T16:51:06.951Z,1.40
2023-04-26T16:53:37.523Z,1.60
2023-04-26T16:56:07.417Z,1.73
2023-04-26T16:58:36.165Z,1.60
2023-04-26T17:01:06.399Z,1.40
2023-04-26T17:03:35.306Z,3.20
2023-04-26T17:06:06.599Z,1.50
2023-04-26T17:08:35.260Z,1.30
2023-04-26T17:11:05.129Z,1.10
2023-04-26T17:13:33.886Z,1.50
2023-04-26T17:16:02.609Z,1.83
2023-04-26T17:18:32.665Z,1.83
2023-04-26T17:21:01.789Z,1.60
2023-04-26T17:23:30.707Z,1.97
2023-04-26T17:25:59.395Z,2.07
2023-04-26T17:28:28.026Z,2.10
2023-04-26T17:30:57.152Z,2.50
2023-04-26T17:33:26.307Z,3.13
2023-04-26T17:35:56.266Z,2.27
2023-04-26T17:38:24.859Z,2.50
2023-04-26T17:40:54.581Z,1.80
2023-04-26T17:43:23.277Z,2.00
2023-04-26T17:45:51.941Z,2.20
2023-04-26T17:48:20.611Z,2.73
2023-04-26T17:50:50.850Z,3.03
2023-04-26T17:53:21.511Z,3.00
2023-04-26T17:55:51.001Z,2.23
2023-04-26T17:58:19.893Z,3.07
2023-04-26T18:00:49.905Z,2.63
2023-04-26T18:03:20.272Z,3.00
2023-04-26T18:05:49.394Z,2.70
2023-04-26T18:08:17.963Z,4.43
2023-04-26T18:10:48.670Z,3.27
2023-04-26T18:13:18.218Z,2.83
2023-04-26T18:15:47.055Z,2.73
2023-04-26T18:18:15.815Z,2.80
2023-04-26T18:20:44.771Z,2.87
2023-04-26T18:23:13.544Z,3.27
2023-04-26T18:25:42.365Z,3.10
2023-04-26T18:28:12.598Z,3.03
2023-04-26T18:30:41.208Z,3.47
2023-04-26T18:33:09.940Z,3.40
2023-04-26T18:35:38.719Z,3.17
2023-04-26T18:38:07.436Z,2.97
2023-04-26T18:40:36.310Z,3.27
2023-04-26T18:43:04.988Z,3.70
2023-04-26T18:45:35.730Z,3.43
2023-04-26T18:48:04.927Z,3.80
2023-04-26T18:50:33.598Z,3.63
2023-04-26T18:53:02.300Z,4.37
2023-04-26T18:55:31.135Z,3.63
2023-04-26T18:57:59.823Z,3.80
2023-04-26T19:00:28.507Z,3.73
2023-04-26T19:02:58.779Z,4.17
2023-04-26T19:05:27.873Z,4.13
2023-04-26T19:07:56.574Z,4.80
2023-04-26T19:10:25.710Z,4.93
2023-04-26T19:12:54.265Z,4.27
2023-04-26T19:15:22.975Z,4.40
2023-04-26T19:17:51.965Z,4.13
2023-04-26T19:20:22.058Z,4.77
2023-04-26T19:22:50.898Z,4.83
2023-04-26T19:25:22.923Z,5.27
2023-04-26T19:27:52.271Z,4.83
2023-04-26T19:30:22.022Z,5.07
2023-04-26T19:32:50.973Z,5.13
2023-04-26T19:35:21.188Z,5.77
2023-04-26T19:37:49.839Z,4.57
2023-04-26T19:40:18.768Z,5.30
2023-04-26T19:42:47.455Z,5.47
2023-04-26T19:45:17.550Z,7.40
2023-04-26T19:47:46.297Z,9.33
2023-04-26T19:50:15.131Z,6.40
2023-04-26T19:52:45.487Z,5.57
2023-04-26T19:55:14.948Z,5.70
2023-04-26T19:57:43.724Z,5.07
2023-04-26T20:00:13.423Z,5.70
2023-04-26T20:02:42.179Z,5.60
2023-04-26T20:05:11.493Z,5.80
2023-04-26T20:07:40.073Z,6.33
2023-04-26T20:10:11.247Z,5.60
2023-04-26T20:12:40.490Z,5.63
2023-04-26T20:15:10.238Z,5.93
2023-04-26T20:17:39.039Z,5.83
2023-04-26T20:20:09.617Z,6.83
2023-04-26T20:22:38.247Z,6.10
2023-04-26T20:25:07.789Z,6.80
2023-04-26T20:27:37.964Z,7.00
2023-04-26T20:30:08.079Z,8.23
2023-04-26T20:32:36.793Z,7.70
2023-04-26T20:35:05.767Z,7.63
2023-04-26T20:37:34.382Z,7.93
2023-04-26T20:40:03.222Z,7.93
2023-04-26T20:42:31.922Z,8.00
2023-04-26T20:45:02.581Z,8.47
2023-04-26T20:47:31.512Z,8.40
2023-04-26T20:50:00.594Z,8.33
2023-04-26T20:52:29.338Z,9.33
2023-04-26T20:54:58.342Z,7.67
2023-04-26T20:57:30.359Z,7.40
2023-04-26T20:59:59.089Z,6.83
2023-04-26T21:02:29.213Z,6.17
2023-04-26T21:04:57.960Z,6.20
2023-04-26T21:07:26.674Z,7.50
2023-04-26T21:09:55.458Z,7.33
2023-04-26T21:12:24.281Z,8.20
2023-04-26T21:14:53.020Z,8.33
2023-04-26T21:17:21.731Z,8.30
2023-04-26T21:19:52.124Z,8.10
2023-04-26T21:22:20.825Z,7.00
2023-04-26T21:24:52.506Z,7.90
2023-04-26T21:27:21.176Z,7.80
2023-04-26T21:29:49.775Z,8.20
2023-04-26T21:32:18.507Z,7.80
2023-04-26T21:34:47.139Z,7.27
2023-04-26T21:37:17.685Z,7.80
2023-04-26T21:39:46.284Z,7.03
2023-04-26T21:42:15.610Z,7.80
2023-04-26T21:44:44.326Z,7.20
2023-04-26T21:47:12.853Z,7.73
2023-04-26T21:49:41.711Z,7.00
2023-04-26T21:52:10.351Z,7.27
2023-04-26T21:54:40.722Z,8.10
2023-04-26T21:57:09.453Z,8.37
2023-04-26T21:59:42.143Z,8.03
2023-04-26T22:02:10.879Z,8.03
2023-04-26T22:04:39.606Z,9.00
2023-04-26T22:07:08.387Z,9.47
2023-04-26T22:09:37.059Z,9.37
2023-04-26T22:12:07.510Z,9.47
2023-04-26T22:14:36.201Z,9.40
2023-04-26T22:17:04.820Z,9.00
2023-04-26T22:19:33.423Z,9.97
2023-04-26T22:22:02.100Z,9.50
2023-04-26T22:24:30.906Z,10.00
2023-04-26T22:26:59.557Z,10.30
2023-04-26T22:29:29.558Z,9.87
2023-04-26T22:31:58.323Z,9.87
2023-04-26T22:34:27.143Z,10.00
2023-04-26T22:37:01.230Z,10.30
2023-04-26T22:39:35.141Z,10.07
2023-04-26T22:42:03.791Z,10.67
2023-04-26T22:44:33.964Z,10.10
2023-04-26T22:47:02.681Z,10.53
2023-04-26T22:49:31.346Z,9.23
2023-04-26T22:52:07.778Z,9.33
2023-04-26T22:54:40.689Z,9.93
2023-04-26T22:57:09.315Z,9.00
2023-04-26T22:59:39.492Z,8.90
2023-04-26T23:02:08.298Z,8.73
2023-04-26T23:04:36.896Z,8.20
2023-04-26T23:07:05.689Z,8.63
2023-04-26T23:09:34.360Z,9.17
2023-04-26T23:12:03.360Z,9.37
2023-04-26T23:14:32.147Z,8.83
2023-04-26T23:17:02.648Z,10.57
2023-04-26T23:19:31.532Z,9.60
2023-04-26T23:22:00.265Z,10.43
2023-04-26T23:24:28.953Z,9.80
2023-04-26T23:26:57.559Z,10.27
2023-04-26T23:29:26.179Z,10.63
2023-04-26T23:31:54.970Z,10.20
2023-04-26T23:34:25.157Z,9.77
2023-04-26T23:36:53.765Z,10.10
2023-04-26T23:39:22.430Z,9.77
2023-04-26T23:41:51.223Z,10.07
2023-04-26T23:44:19.841Z,9.50
2023-04-26T23:46:48.701Z,9.43
2023-04-26T23:49:17.412Z,10.27
2023-04-26T23:51:47.509Z,9.87
2023-04-26T23:54:16.523Z,10.20
2023-04-26T23:56:45.252Z,9.40
2023-04-26T23:59:14.368Z,10.43
